Time;durP1;ratioP1;P1;durP2;ratioP2;P2;SDS_P1;SDS_P2;PMS_P1;PMS_P2;Temp;Humidity;BMP_temperature;BMP_pressure;BME280_temperature;BME280_humidity;BME280_pressure;Samples;Min_cycle;Max_cycle;Signal;HPM_P1;HPM_P2
2021/04/17 00:00:20;;;;;;;10.80;7.63;;;;;;;2.56;68.78;96187.66;4991000;28;20081;-42
2021/04/17 00:02:47;;;;;;;12.88;7.72;;;;;;;2.66;69.09;96182.25;4991110;28;20455;-44
2021/04/17 00:05:14;;;;;;;13.82;8.35;;;;;;;2.51;68.07;96177.00;4991521;28;20156;-47
2021/04/17 00:07:41;;;;;;;13.23;8.70;;;;;;;2.58;68.81;96180.16;4991854;28;20489;-46
2021/04/17 00:10:08;;;;;;;11.05;8.00;;;;;;;2.49;68.60;96177.25;4991043;28;20038;-44
2021/04/17 00:12:35;;;;;;;12.02;8.35;;;;;;;2.29;69.38;96177.34;4989820;28;20046;-43
2021/04/17 00:15:03;;;;;;;11.27;8.20;;;;;;;2.32;70.15;96180.28;4974668;28;20442;-45
2021/04/17 00:17:29;;;;;;;11.45;7.75;;;;;;;2.21;70.23;96175.22;4991865;28;20069;-45
2021/04/17 00:19:56;;;;;;;12.00;8.23;;;;;;;2.31;69.97;96172.56;4991669;28;20060;-47
2021/04/17 00:22:23;;;;;;;12.32;8.10;;;;;;;2.32;70.03;96172.28;4989907;28;20074;-44
2021/04/17 00:24:49;;;;;;;12.32;8.85;;;;;;;2.33;69.99;96170.38;4991501;28;20042;-42
2021/04/17 00:27:16;;;;;;;11.85;7.97;;;;;;;2.24;70.29;96166.69;4991615;28;20089;-44
2021/04/17 00:29:42;;;;;;;11.40;8.18;;;;;;;2.29;70.19;96166.69;4991035;28;20425;-43
2021/04/17 00:32:09;;;;;;;14.13;8.57;;;;;;;2.28;70.71;96165.88;4989591;28;20515;-45
2021/04/17 00:34:37;;;;;;;15.05;9.20;;;;;;;2.36;70.67;96159.16;4991206;28;20097;-47
2021/04/17 00:37:07;;;;;;;12.88;8.93;;;;;;;2.38;70.13;96162.38;4991559;28;20057;-46
2021/04/17 00:39:34;;;;;;;11.85;8.82;;;;;;;2.37;70.28;96157.28;4990611;28;20100;-46
2021/04/17 00:42:00;;;;;;;10.82;8.10;;;;;;;2.40;70.45;96151.41;4991274;28;20074;-42
2021/04/17 00:44:28;;;;;;;13.00;9.18;;;;;;;2.46;70.38;96151.09;4990699;28;20057;-44
2021/04/17 00:46:55;;;;;;;13.50;8.98;;;;;;;2.43;70.55;96146.31;4991600;28;20113;-46
2021/04/17 00:49:22;;;;;;;13.57;8.88;;;;;;;2.53;71.00;96150.81;4993899;28;20082;-43
2021/04/17 00:51:48;;;;;;;12.27;8.75;;;;;;;2.51;70.65;96140.41;4989636;28;20051;-44
2021/04/17 00:54:15;;;;;;;14.45;8.80;;;;;;;2.56;70.58;96145.69;4990282;28;20062;-42
2021/04/17 00:56:42;;;;;;;12.63;8.60;;;;;;;2.32;70.85;96137.56;4991382;28;20101;-46
2021/04/17 00:59:08;;;;;;;12.07;8.38;;;;;;;2.41;71.40;96137.78;4990477;28;20057;-42
2021/04/17 01:01:35;;;;;;;13.82;9.45;;;;;;;2.42;71.05;96135.91;4991111;28;20124;-43
2021/04/17 01:04:08;;;;;;;15.85;9.55;;;;;;;2.45;71.17;96138.03;4991200;28;20042;-44
2021/04/17 01:06:50;;;;;;;12.65;9.48;;;;;;;2.37;70.96;96134.06;4993966;28;20487;-47
2021/04/17 01:09:29;;;;;;;13.02;8.85;;;;;;;2.31;71.35;96129.84;4994832;28;20057;-46
2021/04/17 01:12:02;;;;;;;11.88;8.52;;;;;;;2.36;71.82;96131.66;4994643;28;20103;-44
2021/04/17 01:14:31;;;;;;;13.13;9.13;;;;;;;2.44;71.68;96139.09;4993928;28;20048;-47
2021/04/17 01:16:59;;;;;;;12.70;9.18;;;;;;;2.39;71.82;96131.91;4995078;28;20168;-41
2021/04/17 01:19:40;;;;;;;13.93;9.23;;;;;;;2.36;72.22;96137.00;4994529;28;20520;-45
2021/04/17 01:22:12;;;;;;;13.68;9.10;;;;;;;2.43;71.91;96127.63;4993112;28;20481;-46
2021/04/17 01:24:43;;;;;;;13.23;9.23;;;;;;;2.36;71.63;96129.00;4994255;28;20206;-45
2021/04/17 01:27:11;;;;;;;14.38;9.88;;;;;;;2.34;71.94;96130.09;4995091;28;20046;-46
2021/04/17 01:29:40;;;;;;;14.35;9.50;;;;;;;2.48;71.71;96135.63;4995300;28;20061;-45
2021/04/17 01:32:14;;;;;;;14.98;9.75;;;;;;;2.28;71.75;96119.69;4993801;28;20050;-44
2021/04/17 01:34:42;;;;;;;15.68;10.15;;;;;;;2.33;72.33;96125.00;4995372;28;20054;-47
2021/04/17 01:37:12;;;;;;;13.93;9.07;;;;;;;2.31;72.39;96124.50;4995775;28;20050;-45
2021/04/17 01:39:40;;;;;;;15.85;9.68;;;;;;;2.30;72.76;96123.66;4992406;28;20136;-48
2021/04/17 01:42:09;;;;;;;15.27;9.35;;;;;;;2.08;72.57;96121.38;4993145;28;20054;-47
2021/04/17 01:44:41;;;;;;;14.02;9.60;;;;;;;2.09;73.34;96119.50;4993937;28;20068;-45
2021/04/17 01:47:12;;;;;;;13.55;9.23;;;;;;;2.07;73.39;96114.44;4994148;28;20100;-44
2021/04/17 01:49:43;;;;;;;13.60;9.38;;;;;;;2.25;73.34;96125.59;4994129;28;20424;-43
2021/04/17 01:52:13;;;;;;;14.43;9.88;;;;;;;2.12;73.38;96110.16;4991375;28;20058;-44
2021/04/17 01:54:46;;;;;;;15.18;10.20;;;;;;;2.15;73.28;96115.75;4974444;28;20042;-46
2021/04/17 01:57:14;;;;;;;;;;;;;;;2.13;73.32;96117.09;4975111;28;20571;-48
2021/04/17 01:59:41;;;;;;;12.82;8.90;;;;;;;2.02;73.42;96109.13;4974076;28;19922;-45
2021/04/17 02:02:08;;;;;;;14.82;9.88;;;;;;;1.99;73.97;96106.22;4991793;28;20066;-46
2021/04/17 02:04:35;;;;;;;16.83;10.50;;;;;;;1.92;74.17;96111.03;5016009;23;20408;-45
2021/04/17 02:07:03;;;;;;;14.75;9.73;;;;;;;1.86;73.83;96110.25;5002051;28;20478;-46
2021/04/17 02:09:29;;;;;;;17.80;10.30;;;;;;;1.78;73.96;96110.81;5012403;28;20050;-48
2021/04/17 02:11:56;;;;;;;14.15;9.88;;;;;;;1.43;74.68;96107.16;5011232;28;20045;-46
2021/04/17 02:14:23;;;;;;;14.30;9.95;;;;;;;1.45;75.17;96114.88;5011558;28;20119;-48
2021/04/17 02:17:01;;;;;;;15.45;9.95;;;;;;;1.38;75.56;96107.16;5012296;28;20056;-47
2021/04/17 02:19:43;;;;;;;16.20;10.63;;;;;;;1.22;75.72;96108.25;5012641;28;20061;-47
2021/04/17 02:22:10;;;;;;;16.40;10.30;;;;;;;1.16;76.12;96110.91;4992321;28;20053;-46
2021/04/17 02:24:39;;;;;;;17.67;11.32;;;;;;;1.29;75.80;96101.56;5009858;28;20042;-48
2021/04/17 02:27:06;;;;;;;15.70;11.15;;;;;;;1.08;76.31;96100.81;5012066;28;20056;-46
2021/04/17 02:29:33;;;;;;;16.13;10.98;;;;;;;1.23;76.17;96099.19;5012264;28;20049;-48
2021/04/17 02:31:59;;;;;;;17.17;11.55;;;;;;;1.28;75.80;96102.66;4993737;28;20061;-46
2021/04/17 02:34:27;;;;;;;18.08;11.55;;;;;;;1.32;75.70;96100.25;4990098;28;20515;-47
2021/04/17 02:36:54;;;;;;;17.73;11.88;;;;;;;1.27;75.72;96098.41;5011333;28;20045;-46
2021/04/17 02:39:20;;;;;;;17.50;11.88;;;;;;;1.28;75.73;96096.53;5011725;28;20049;-48
2021/04/17 02:41:46;;;;;;;16.05;11.38;;;;;;;1.23;76.25;96094.66;5012121;28;20144;-48
2021/04/17 02:44:13;;;;;;;18.92;12.43;;;;;;;1.15;76.72;96095.19;4994608;28;20050;-48
2021/04/17 02:46:39;;;;;;;18.33;12.20;;;;;;;0.96;77.52;96086.94;4992611;28;20051;-48
2021/04/17 02:49:06;;;;;;;21.10;12.15;;;;;;;0.91;77.76;96089.59;4993138;28;20054;-46
2021/04/17 02:51:32;;;;;;;20.33;11.95;;;;;;;0.95;77.81;96087.22;4992363;28;20133;-43
2021/04/17 02:53:59;;;;;;;15.80;10.57;;;;;;;0.93;77.86;96085.59;4992692;28;20054;-47
2021/04/17 02:56:25;;;;;;;18.60;12.07;;;;;;;1.03;77.84;96081.34;4992355;28;20149;-46
2021/04/17 02:58:51;;;;;;;17.52;10.93;;;;;;;1.09;77.53;96083.75;4992300;28;20050;-47
2021/04/17 03:01:18;;;;;;;18.90;11.88;;;;;;;0.92;77.19;96085.88;4995673;28;20054;-43
2021/04/17 03:03:45;;;;;;;17.30;11.15;;;;;;;0.98;77.28;96084.81;4991076;28;20437;-46
2021/04/17 03:06:12;;;;;;;19.67;11.30;;;;;;;1.01;77.30;96083.47;4991340;28;20455;-42
2021/04/17 03:08:38;;;;;;;17.00;12.05;;;;;;;0.98;77.66;96087.50;4992614;28;20146;-42
2021/04/17 03:11:04;;;;;;;20.38;12.40;;;;;;;0.90;77.95;96088.81;4992305;28;20046;-43
2021/04/17 03:13:31;;;;;;;17.33;11.75;;;;;;;0.90;78.22;96082.69;4992111;28;20162;-45
2021/04/17 03:15:57;;;;;;;17.38;11.25;;;;;;;0.76;79.02;96077.09;4992212;28;20050;-48
2021/04/17 03:18:24;;;;;;;18.15;11.38;;;;;;;0.83;78.71;96074.16;4992437;28;20145;-47
2021/04/17 03:20:51;;;;;;;17.40;11.18;;;;;;;0.82;78.61;96064.59;4992387;28;20085;-51
2021/04/17 03:23:17;;;;;;;18.52;11.88;;;;;;;0.92;78.54;96073.38;4991836;28;20153;-47
2021/04/17 03:25:44;;;;;;;18.10;12.07;;;;;;;0.97;78.32;96069.88;4991865;28;20064;-48
2021/04/17 03:28:10;;;;;;;16.80;11.32;;;;;;;1.11;78.05;96072.84;4991518;28;20133;-44
2021/04/17 03:30:37;;;;;;;17.60;11.48;;;;;;;1.03;78.25;96068.03;4992178;28;20062;-41
2021/04/17 03:33:04;;;;;;;19.08;12.15;;;;;;;1.13;78.01;96063.47;4991713;28;20062;-43
2021/04/17 03:35:32;;;;;;;19.35;12.43;;;;;;;0.98;78.40;96066.19;4991896;28;20181;-42
2021/04/17 03:37:59;;;;;;;18.15;11.95;;;;;;;0.93;78.66;96066.16;4992048;28;20495;-45
2021/04/17 03:40:26;;;;;;;18.50;11.80;;;;;;;1.00;78.62;96064.03;4991590;28;20050;-45
2021/04/17 03:42:52;;;;;;;19.77;12.32;;;;;;;1.00;78.36;96063.22;4991261;28;20133;-44
2021/04/17 03:45:20;;;;;;;21.92;12.43;;;;;;;0.92;78.75;96060.03;4991583;28;20149;-42
2021/04/17 03:47:46;;;;;;;18.90;11.05;;;;;;;0.92;78.87;96069.91;4992055;28;20076;-43
2021/04/17 03:50:14;;;;;;;17.75;11.68;;;;;;;0.90;78.86;96075.47;4991447;28;20119;-43
2021/04/17 03:52:41;;;;;;;17.80;11.57;;;;;;;0.80;79.29;96070.16;4992708;28;20076;-46
2021/04/17 03:55:10;;;;;;;19.45;12.43;;;;;;;0.77;79.53;96064.56;5011343;28;20127;-43
2021/04/17 03:57:37;;;;;;;18.70;12.65;;;;;;;0.76;79.76;96073.63;5011582;28;20483;-43
2021/04/17 04:00:07;;;;;;;20.85;11.75;;;;;;;0.80;79.32;96074.69;5004446;28;20073;-44
2021/04/17 04:02:34;;;;;;;18.23;11.88;;;;;;;0.88;79.17;96084.84;4990123;28;20054;-43
2021/04/17 04:05:02;;;;;;;20.05;12.68;;;;;;;1.10;78.75;96085.31;4991327;28;20049;-46
2021/04/17 04:07:29;;;;;;;19.10;11.80;;;;;;;1.15;78.32;96085.34;4991533;28;20057;-45
2021/04/17 04:09:55;;;;;;;20.02;12.43;;;;;;;1.13;78.24;96095.44;4991113;28;20054;-44
2021/04/17 04:12:22;;;;;;;19.40;12.70;;;;;;;1.22;78.61;96093.06;4990962;28;20132;-43
2021/04/17 04:14:48;;;;;;;22.27;13.05;;;;;;;1.29;78.67;96092.78;4991514;28;20208;-45
2021/04/17 04:17:15;;;;;;;22.42;13.00;;;;;;;1.30;78.57;96083.72;4990036;28;20464;-47
2021/04/17 04:19:42;;;;;;;22.42;13.82;;;;;;;1.47;78.17;96084.22;4991197;28;20096;-44
2021/04/17 04:22:08;;;;;;;23.08;13.82;;;;;;;1.25;78.23;96083.72;4990730;28;20077;-42
2021/04/17 04:24:35;;;;;;;23.33;14.20;;;;;;;1.23;78.42;96089.31;4991360;28;20066;-44
2021/04/17 04:27:01;;;;;;;21.42;14.13;;;;;;;1.25;78.58;96087.19;4991591;28;20140;-46
2021/04/17 04:29:28;;;;;;;21.40;13.20;;;;;;;1.16;78.75;96094.13;4991477;28;20058;-45
2021/04/17 04:31:54;;;;;;;22.88;14.07;;;;;;;1.24;78.61;96090.13;4989549;28;20058;-42
2021/04/17 04:34:21;;;;;;;23.30;13.88;;;;;;;1.15;78.96;96093.34;4991183;28;20093;-43
2021/04/17 04:36:48;;;;;;;23.17;14.23;;;;;;;1.23;78.70;96081.31;4991438;28;20145;-47
2021/04/17 04:39:14;;;;;;;24.95;15.65;;;;;;;0.94;80.03;96091.72;4992232;28;20472;-42
2021/04/17 04:41:40;;;;;;;22.63;14.10;;;;;;;0.99;79.88;96088.28;4993831;28;20080;-43
2021/04/17 04:44:07;;;;;;;22.38;14.30;;;;;;;1.08;79.52;96098.13;4994388;28;20049;-43
2021/04/17 04:46:34;;;;;;;22.80;14.27;;;;;;;1.01;79.35;96091.47;4994977;28;20101;-44
2021/04/17 04:49:01;;;;;;;22.50;13.82;;;;;;;0.90;80.18;96096.00;4995223;28;20130;-45
2021/04/17 04:51:28;;;;;;;27.35;14.13;;;;;;;0.90;79.98;96096.78;4994555;28;20184;-44
2021/04/17 04:53:58;;;;;;;21.70;13.82;;;;;;;0.88;80.07;96098.16;4995114;28;20220;-43
2021/04/17 04:56:25;;;;;;;21.27;13.13;;;;;;;0.83;80.64;96111.44;4994535;28;20492;-45
2021/04/17 04:58:52;;;;;;;23.45;14.35;;;;;;;1.17;79.87;96107.19;4993552;28;20054;-44
2021/04/17 05:01:18;;;;;;;23.30;13.57;;;;;;;1.32;78.91;96108.25;4993174;28;20652;-45
2021/04/17 05:03:45;;;;;;;22.38;13.63;;;;;;;1.17;79.16;96104.53;4994630;28;20509;-44
2021/04/17 05:06:11;;;;;;;22.92;13.95;;;;;;;1.22;79.06;96102.91;4994499;28;20050;-45
2021/04/17 05:08:38;;;;;;;24.38;14.48;;;;;;;1.38;79.34;96105.28;4994539;28;20508;-46
2021/04/17 05:11:04;;;;;;;20.92;14.02;;;;;;;1.37;78.73;96108.25;4994542;28;20157;-45
2021/04/17 05:13:31;;;;;;;22.55;14.30;;;;;;;1.22;78.92;96097.59;4994507;28;20050;-46
2021/04/17 05:15:57;;;;;;;22.63;14.02;;;;;;;1.17;79.38;96099.22;4994859;28;20050;-45
2021/04/17 05:18:24;;;;;;;22.58;14.35;;;;;;;1.25;79.37;96103.19;4994502;28;20051;-46
2021/04/17 05:20:50;;;;;;;23.02;14.32;;;;;;;1.18;79.31;96092.00;4993294;28;20228;-47
2021/04/17 05:23:17;;;;;;;23.45;14.95;;;;;;;1.35;78.88;96100.50;4993913;28;20051;-44
2021/04/17 05:25:43;;;;;;;24.35;14.35;;;;;;;1.43;78.43;96099.19;4995998;28;20077;-47
2021/04/17 05:28:11;;;;;;;24.45;14.57;;;;;;;1.42;78.60;96097.56;5001033;28;20451;-46
2021/04/17 05:30:38;;;;;;;25.60;14.45;;;;;;;1.35;79.09;96102.38;5000341;28;20524;-46
2021/04/17 05:33:05;;;;;;;23.80;14.85;;;;;;;1.35;78.88;96099.72;5003969;28;20046;-43
2021/04/17 05:35:32;;;;;;;22.85;13.35;;;;;;;1.29;78.60;96092.78;5013670;28;20042;-45
2021/04/17 05:37:59;;;;;;;21.58;14.35;;;;;;;1.34;78.25;96101.56;5002291;28;20046;-45
2021/04/17 05:40:26;;;;;;;26.17;15.00;;;;;;;1.26;79.00;96099.44;4994155;28;20050;-44
2021/04/17 05:42:52;;;;;;;25.02;15.82;;;;;;;1.42;78.67;96108.22;4992239;28;20476;-44
2021/04/17 05:45:19;;;;;;;25.85;15.65;;;;;;;1.37;78.96;96101.03;5004297;28;20072;-43
2021/04/17 05:47:45;;;;;;;24.55;15.25;;;;;;;1.37;78.82;96105.59;5013725;28;20398;-44
2021/04/17 05:50:12;;;;;;;26.35;15.40;;;;;;;1.61;78.51;96113.78;5013549;28;20054;-45
2021/04/17 05:52:39;;;;;;;23.88;14.75;;;;;;;1.53;78.47;96115.16;4994787;28;20439;-49
2021/04/17 05:55:06;;;;;;;23.00;15.00;;;;;;;1.54;78.62;96122.06;4993471;28;20046;-44
2021/04/17 05:57:32;;;;;;;27.10;15.35;;;;;;;1.69;78.09;96112.44;4992459;28;20455;-43
2021/04/17 05:59:58;;;;;;;24.77;15.30;;;;;;;1.85;77.98;96119.31;4993397;28;20050;-44
2021/04/17 06:02:25;;;;;;;24.92;16.33;;;;;;;1.98;77.70;96121.44;5004397;28;20101;-45
2021/04/17 06:04:51;;;;;;;28.05;16.30;;;;;;;2.00;78.26;96126.47;5013044;28;20406;-44
2021/04/17 06:07:18;;;;;;;24.13;14.63;;;;;;;2.13;77.60;96125.09;5004474;28;20054;-44
2021/04/17 06:09:44;;;;;;;25.13;15.27;;;;;;;1.93;78.40;96124.09;4993402;28;20467;-44
2021/04/17 06:12:11;;;;;;;26.33;15.45;;;;;;;2.08;78.11;96118.72;4993123;28;20055;-45
2021/04/17 06:14:38;;;;;;;24.48;15.13;;;;;;;2.38;77.59;96121.53;4992108;28;20069;-46
2021/04/17 06:17:04;;;;;;;26.90;15.57;;;;;;;2.31;77.99;96122.63;4995904;28;20466;-46
2021/04/17 06:19:31;;;;;;;24.63;15.85;;;;;;;2.49;77.13;96129.19;5003072;28;20553;-45
2021/04/17 06:21:58;;;;;;;24.60;15.68;;;;;;;2.65;78.49;96131.78;5009305;28;20054;-46
2021/04/17 06:24:24;;;;;;;30.85;17.40;;;;;;;2.46;76.91;96132.41;5010825;28;20046;-48
2021/04/17 06:26:51;;;;;;;25.08;15.57;;;;;;;2.41;77.21;96123.66;5011681;28;20140;-47
2021/04/17 06:29:17;;;;;;;25.40;15.95;;;;;;;2.58;77.69;96132.88;5012592;28;20049;-46
2021/04/17 06:31:43;;;;;;;23.10;14.95;;;;;;;2.64;76.38;96127.53;5001569;28;20108;-46
2021/04/17 06:34:10;;;;;;;24.92;16.10;;;;;;;2.83;77.21;96133.81;4992922;28;20408;-44
2021/04/17 06:36:36;;;;;;;23.30;15.60;;;;;;;3.00;76.67;96131.53;4991546;28;20526;-46
2021/04/17 06:39:06;;;;;;;26.35;17.13;;;;;;;2.68;77.15;96129.34;4991208;28;20047;-43
2021/04/17 06:41:34;;;;;;;24.83;15.43;;;;;;;2.51;77.05;96127.06;4991981;28;20574;-49
2021/04/17 06:44:03;;;;;;;23.85;16.85;;;;;;;2.74;77.62;96124.78;5010183;28;20045;-44
2021/04/17 06:46:32;;;;;;;24.95;16.05;;;;;;;2.77;77.50;96126.91;5012737;28;20050;-47
2021/04/17 06:49:04;;;;;;;27.83;15.93;;;;;;;2.65;76.63;96123.75;5011953;28;20046;-47
2021/04/17 06:51:33;;;;;;;34.42;17.60;;;;;;;2.68;77.97;96117.88;5010648;28;20046;-44
2021/04/17 06:54:00;;;;;;;25.17;15.75;;;;;;;2.49;78.39;96123.84;4993770;28;20050;-49
2021/04/17 06:56:26;;;;;;;28.10;16.40;;;;;;;2.41;79.37;96119.09;5004056;28;20042;-44
2021/04/17 06:58:53;;;;;;;26.30;16.83;;;;;;;2.53;78.99;96116.06;5010083;28;20049;-46
2021/04/17 07:01:20;;;;;;;29.15;16.92;;;;;;;2.65;79.31;96111.19;5004315;28;20073;-46
2021/04/17 07:03:47;;;;;;;27.50;16.80;;;;;;;2.58;78.93;96111.50;5011114;28;20065;-45
2021/04/17 07:06:14;;;;;;;28.23;17.05;;;;;;;2.63;79.36;96110.66;4994052;28;20043;-46
2021/04/17 07:08:42;;;;;;;26.23;17.05;;;;;;;2.62;79.79;96114.44;4992732;28;20088;-45
2021/04/17 07:11:10;;;;;;;26.38;17.95;;;;;;;2.83;79.91;96120.44;5008275;28;20542;-45
2021/04/17 07:13:36;;;;;;;28.90;16.30;;;;;;;2.30;80.18;96114.88;4997568;28;20137;-45
2021/04/17 07:16:11;;;;;;;26.67;15.63;;;;;;;2.37;81.36;96120.69;4997593;28;20042;-47
2021/04/17 07:18:39;;;;;;;27.20;16.92;;;;;;;2.43;81.36;96124.94;5006316;28;20050;-48
2021/04/17 07:21:15;;;;;;;24.92;15.20;;;;;;;2.31;81.63;96121.81;4995064;28;20062;-43
2021/04/17 07:23:44;;;;;;;25.75;15.93;;;;;;;2.49;81.76;96123.84;5010904;28;20510;-44
2021/04/17 07:26:19;;;;;;;23.73;15.23;;;;;;;2.36;82.18;96121.78;5009333;28;20045;-43
2021/04/17 07:28:55;;;;;;;28.42;14.88;;;;;;;2.58;81.23;96119.53;4997332;28;20046;-45
2021/04/17 07:31:26;;;;;;;24.58;14.95;;;;;;;2.57;81.47;96117.94;4993028;28;20520;-46
2021/04/17 07:33:55;;;;;;;24.98;14.35;;;;;;;2.98;80.04;96123.00;4996785;28;20141;-44
2021/04/17 07:36:43;;;;;;;25.33;15.25;;;;;;;2.82;80.20;96124.19;5007565;28;20095;-45
2021/04/17 07:39:31;;;;;;;28.35;17.58;;;;;;;2.66;80.71;96122.69;5009920;28;20121;-47
2021/04/17 07:42:07;;;;;;;27.33;16.45;;;;;;;2.63;81.27;96123.22;5001490;28;20073;-44
2021/04/17 07:44:36;;;;;;;24.10;15.60;;;;;;;3.09;81.53;96129.09;5004975;28;20129;-48
2021/04/17 07:47:04;;;;;;;22.13;13.90;;;;;;;3.16;81.71;96126.88;5011209;28;20183;-46
2021/04/17 07:49:32;;;;;;;16.50;11.57;;;;;;;3.10;78.88;96127.19;5009175;28;20061;-50
2021/04/17 07:52:15;;;;;;;19.77;12.30;;;;;;;3.51;78.74;96122.31;4993630;28;20054;-47
2021/04/17 07:55:00;;;;;;;21.40;13.07;;;;;;;3.50;78.82;96121.47;4993291;28;20133;-46
2021/04/17 07:57:36;;;;;;;20.67;14.18;;;;;;;3.76;79.18;96129.25;4997928;28;20069;-47
2021/04/17 08:00:06;;;;;;;22.30;13.45;;;;;;;3.63;78.06;96114.69;4992354;28;20104;-48
2021/04/17 08:02:37;;;;;;;19.17;13.10;;;;;;;3.62;77.00;96123.78;4991916;28;20077;-46
2021/04/17 08:05:05;;;;;;;19.80;13.38;;;;;;;3.73;77.79;96121.81;4992416;28;20085;-45
2021/04/17 08:07:35;;;;;;;16.80;12.40;;;;;;;3.45;78.04;96123.44;4991630;28;20058;-45
2021/04/17 08:10:02;;;;;;;19.88;13.50;;;;;;;3.25;77.20;96114.50;4992005;28;20050;-42
2021/04/17 08:12:32;;;;;;;19.80;12.65;;;;;;;3.56;78.52;96116.91;4991392;28;20057;-45
2021/04/17 08:14:59;;;;;;;19.50;13.25;;;;;;;3.35;78.77;96110.13;4991430;28;20066;-46
2021/04/17 08:17:32;;;;;;;18.00;13.00;;;;;;;3.71;78.07;96115.94;4991895;28;20571;-44
2021/04/17 08:20:00;;;;;;;20.00;13.77;;;;;;;4.13;77.95;96114.41;4991578;28;20058;-46
2021/04/17 08:22:27;;;;;;;21.73;15.13;;;;;;;3.82;76.14;96114.75;4991164;28;20124;-45
2021/04/17 08:24:54;;;;;;;21.40;14.60;;;;;;;4.16;76.60;96114.66;4991421;28;20050;-46
2021/04/17 08:27:22;;;;;;;16.25;11.50;;;;;;;3.28;75.02;96115.81;4992168;28;20050;-45
2021/04/17 08:29:55;;;;;;;15.85;9.75;;;;;;;2.83;76.19;96115.09;4990514;28;20055;-42
2021/04/17 08:32:24;;;;;;;16.48;10.02;;;;;;;3.13;76.23;96121.31;4991093;28;20054;-44
2021/04/17 08:35:01;;;;;;;15.00;9.68;;;;;;;3.48;74.52;96117.53;4991700;28;20050;-45
2021/04/17 08:37:30;;;;;;;13.23;9.30;;;;;;;3.24;75.35;96112.91;4991418;28;20562;-46
2021/04/17 08:39:57;;;;;;;14.30;8.90;;;;;;;2.92;74.58;96113.41;4991606;28;20073;-47
2021/04/17 08:42:45;;;;;;;12.10;7.35;;;;;;;3.34;74.50;96114.69;4990925;28;20058;-45
2021/04/17 08:45:17;;;;;;;12.38;8.35;;;;;;;3.78;73.16;96108.38;4991186;28;20129;-45
2021/04/17 08:47:55;;;;;;;12.90;8.83;;;;;;;3.30;72.32;96108.31;4991555;28;20050;-45
2021/04/17 08:50:32;;;;;;;14.68;9.68;;;;;;;3.33;73.08;96104.28;4991494;28;20750;-48
2021/04/17 08:53:17;;;;;;;16.65;10.07;;;;;;;3.31;73.27;96101.06;5010043;28;20124;-47
2021/04/17 08:55:46;;;;;;;14.70;10.45;;;;;;;3.49;72.70;96097.72;5010968;28;20050;-48
2021/04/17 08:58:20;;;;;;;18.15;12.50;;;;;;;3.45;74.56;96102.81;5009700;28;20069;-45
2021/04/17 09:00:52;;;;;;;17.20;12.05;;;;;;;4.18;71.42;96100.94;4998387;28;20054;-45
2021/04/17 09:03:46;;;;;;;17.40;11.70;;;;;;;4.64;71.79;96100.34;4991317;28;20139;-45
2021/04/17 09:06:25;;;;;;;16.88;11.88;;;;;;;4.85;71.03;96093.59;4991200;28;20411;-47
2021/04/17 09:09:16;;;;;;;14.35;10.48;;;;;;;4.73;68.89;96089.78;4990889;28;20054;-46
2021/04/17 09:11:46;;;;;;;15.15;9.45;;;;;;;4.25;71.00;96096.03;4990955;28;20504;-42
2021/04/17 09:14:28;;;;;;;15.18;9.65;;;;;;;4.04;70.60;96097.38;4991073;28;20534;-44
2021/04/17 09:16:59;;;;;;;13.32;9.25;;;;;;;4.08;68.44;96096.53;4991272;28;20161;-43
2021/04/17 09:19:41;;;;;;;15.20;9.68;;;;;;;4.43;68.52;96095.28;4991083;28;20058;-45
2021/04/17 09:22:34;;;;;;;13.25;9.15;;;;;;;4.28;69.48;96094.66;4990837;28;20064;-43
2021/04/17 09:25:05;;;;;;;14.33;10.07;;;;;;;3.81;69.80;96091.75;4990870;28;20055;-44
2021/04/17 09:27:35;;;;;;;15.70;11.18;;;;;;;4.40;70.51;96087.03;4993738;28;20085;-45
2021/04/17 09:30:05;;;;;;;18.55;11.65;;;;;;;4.84;70.43;96089.34;4994634;28;20077;-46
2021/04/17 09:32:37;;;;;;;13.70;9.68;;;;;;;4.61;68.60;96084.84;4994300;28;20137;-45
2021/04/17 09:35:32;;;;;;;9.80;7.28;;;;;;;3.99;68.06;96082.97;4994627;28;20122;-45
2021/04/17 09:38:16;;;;;;;11.82;7.28;;;;;;;4.10;67.00;96082.88;4994572;28;20132;-45
2021/04/17 09:40:53;;;;;;;12.93;7.97;;;;;;;4.24;66.87;96089.09;4994092;28;20138;-47
2021/04/17 09:43:37;;;;;;;11.65;8.30;;;;;;;4.19;67.27;96081.94;4992936;28;20054;-45
2021/04/17 09:46:15;;;;;;;12.13;7.63;;;;;;;4.14;66.55;96082.00;4993837;28;20057;-44
2021/04/17 09:48:43;;;;;;;11.55;8.43;;;;;;;4.11;66.78;96085.25;4994891;28;20069;-45
2021/04/17 09:51:23;;;;;;;11.75;8.52;;;;;;;4.58;66.42;96083.56;4993900;28;20050;-51
2021/04/17 09:53:51;;;;;;;12.65;7.90;;;;;;;4.61;65.34;96082.16;4993757;28;20112;-46
2021/04/17 09:56:32;;;;;;;12.23;8.55;;;;;;;5.40;64.85;96076.91;4993889;28;20459;-47
2021/04/17 09:59:06;;;;;;;11.93;8.05;;;;;;;5.97;62.64;96063.25;4994074;28;20042;-45
2021/04/17 10:01:53;;;;;;;11.48;8.05;;;;;;;5.84;60.41;96054.06;4997482;28;20066;-45
2021/04/17 10:04:21;;;;;;;12.32;8.23;;;;;;;5.26;63.11;96066.13;4993737;28;20054;-45
2021/04/17 10:06:56;;;;;;;11.65;7.85;;;;;;;5.48;61.26;96062.00;4993829;28;20567;-44
2021/04/17 10:09:23;;;;;;;11.65;8.15;;;;;;;5.72;63.81;96057.25;5008114;28;20054;-46
2021/04/17 10:11:50;;;;;;;13.43;8.75;;;;;;;6.06;63.06;96054.19;4993398;28;20506;-48
2021/04/17 10:14:18;;;;;;;13.55;8.50;;;;;;;5.74;62.14;96049.69;4993635;28;20129;-46
2021/04/17 10:16:48;;;;;;;13.98;8.18;;;;;;;5.49;61.27;96053.66;4993495;28;20412;-44
2021/04/17 10:19:17;;;;;;;11.32;7.88;;;;;;;5.10;64.00;96040.66;4993677;28;20133;-46
2021/04/17 10:21:53;;;;;;;13.98;8.68;;;;;;;5.37;62.03;96037.25;4993485;28;20128;-47
2021/04/17 10:24:24;;;;;;;11.00;7.82;;;;;;;5.33;61.62;96036.22;4993817;28;20080;-45
2021/04/17 10:27:12;;;;;;;13.20;8.45;;;;;;;5.58;62.02;96034.97;4993402;28;20058;-46
2021/04/17 10:29:51;;;;;;;14.23;8.25;;;;;;;6.03;62.65;96041.34;4993454;28;20050;-49
2021/04/17 10:32:25;;;;;;;11.30;7.78;;;;;;;6.45;58.07;96035.91;4993130;28;20066;-45
2021/04/17 10:35:00;;;;;;;12.52;7.75;;;;;;;6.46;58.02;96032.91;4993522;28;20125;-46
2021/04/17 10:37:27;;;;;;;11.88;8.48;;;;;;;6.38;59.57;96035.53;4992845;28;20053;-46
2021/04/17 10:40:09;;;;;;;9.93;7.35;;;;;;;6.30;58.24;96032.47;4993463;28;20046;-48
2021/04/17 10:42:56;;;;;;;11.52;7.90;;;;;;;6.02;59.01;96029.03;4992969;28;20042;-49
2021/04/17 10:45:28;;;;;;;12.98;8.00;;;;;;;5.21;59.26;96023.31;4993020;28;20046;-45
2021/04/17 10:48:14;;;;;;;10.23;7.45;;;;;;;5.41;60.06;96014.09;4992734;28;20120;-48
2021/04/17 10:51:03;;;;;;;10.82;7.43;;;;;;;6.36;59.97;96021.59;4992455;28;20129;-45
2021/04/17 10:53:40;;;;;;;12.07;7.95;;;;;;;6.66;58.18;96018.22;4992576;28;20512;-47
2021/04/17 10:56:16;;;;;;;10.20;7.38;;;;;;;6.48;57.73;96019.97;4993001;28;20073;-46
2021/04/17 10:58:45;;;;;;;12.27;7.68;;;;;;;5.86;60.13;96017.78;4992794;28;20061;-48
2021/04/17 11:01:14;;;;;;;12.32;6.85;;;;;;;5.58;60.60;96008.13;4991274;28;20050;-47
2021/04/17 11:03:50;;;;;;;12.60;7.90;;;;;;;5.78;59.97;96007.72;4992466;28;20423;-48
2021/04/17 11:06:21;;;;;;;10.68;7.93;;;;;;;6.33;58.11;96002.28;4992392;28;20057;-45
2021/04/17 11:08:50;;;;;;;10.90;7.55;;;;;;;6.67;58.02;96003.69;4992604;28;20064;-48
2021/04/17 11:11:20;;;;;;;9.27;7.20;;;;;;;6.41;57.39;96000.00;4991071;28;20049;-46
2021/04/17 11:13:55;;;;;;;12.27;7.25;;;;;;;6.40;57.84;95993.00;4991909;28;20066;-46
2021/04/17 11:16:34;;;;;;;10.32;7.20;;;;;;;5.88;57.99;95995.19;4992428;28;20054;-46
2021/04/17 11:19:01;;;;;;;12.43;7.95;;;;;;;6.12;58.94;95995.00;4992626;28;20137;-46
2021/04/17 11:21:28;;;;;;;13.52;7.15;;;;;;;6.27;58.84;95987.41;4992836;28;20088;-46
2021/04/17 11:24:02;;;;;;;10.15;6.55;;;;;;;6.08;58.19;95990.22;4992188;28;20058;-45
2021/04/17 11:26:33;;;;;;;9.07;6.60;;;;;;;6.51;59.26;95994.38;4992164;28;20046;-46
2021/04/17 11:29:03;;;;;;;10.05;7.57;;;;;;;6.53;56.92;95989.47;4992321;28;20046;-50
2021/04/17 11:31:33;;;;;;;10.57;6.20;;;;;;;6.32;56.57;95984.59;4991998;28;20050;-48
2021/04/17 11:34:02;;;;;;;11.43;7.93;;;;;;;5.53;58.89;95986.78;4992172;28;20062;-50
2021/04/17 11:36:32;;;;;;;12.00;7.32;;;;;;;5.73;59.15;95982.88;4990874;28;20097;-47
2021/04/17 11:38:59;;;;;;;11.05;7.30;;;;;;;6.40;59.96;95984.94;4992480;28;20070;-47
2021/04/17 11:41:26;;;;;;;11.50;7.97;;;;;;;6.82;57.61;95982.88;4992119;28;20057;-46